Time;durP1;ratioP1;P1;durP2;ratioP2;P2;SDS_P1;SDS_P2;PMS_P1;PMS_P2;Temp;Humidity;BMP_temperature;BMP_pressure;BME280_temperature;BME280_humidity;BME280_pressure;Samples;Min_cycle;Max_cycle;Signal;HPM_P1;HPM_P2
2023/07/10 00:01:27;;;;;;;8.10;3.78;;;;;;;18.99;83.68;101932.84;4912726;29;20181;-60
2023/07/10 00:03:53;;;;;;;7.40;3.92;;;;;;;18.94;83.44;101941.66;4905774;29;20052;-60
2023/07/10 00:06:19;;;;;;;7.95;3.70;;;;;;;18.89;83.52;101943.34;4892939;29;20032;-60
2023/07/10 00:08:44;;;;;;;8.05;3.95;;;;;;;18.88;83.78;101943.34;4911426;29;20054;-60
2023/07/10 00:11:14;;;;;;;9.43;3.78;;;;;;;18.90;83.43;101947.78;4911773;29;20047;-60
2023/07/10 00:13:40;;;;;;;7.60;3.35;;;;;;;18.89;83.48;101956.56;4908395;29;20422;-60
2023/07/10 00:16:16;;;;;;;7.20;3.70;;;;;;;18.87;83.46;101947.75;4902001;29;20032;-60
2023/07/10 00:18:42;;;;;;;8.88;3.30;;;;;;;18.92;83.66;101943.38;4911605;29;20044;-61
2023/07/10 00:21:07;;;;;;;8.05;3.47;;;;;;;18.94;83.88;101949.56;4907763;29;20074;-60
2023/07/10 00:23:32;;;;;;;8.88;3.75;;;;;;;18.92;83.84;101953.94;4910844;29;20024;-60
2023/07/10 00:25:57;;;;;;;9.57;4.03;;;;;;;18.85;85.08;101954.72;4907454;29;20036;-60
2023/07/10 00:28:23;;;;;;;9.25;4.50;;;;;;;18.83;85.11;101960.88;4912129;29;20035;-59
2023/07/10 00:30:49;;;;;;;8.57;4.07;;;;;;;18.82;85.81;101954.72;4909191;29;20032;-60
2023/07/10 00:33:17;;;;;;;9.20;3.83;;;;;;;18.80;87.71;101950.28;4911177;29;20075;-59
2023/07/10 00:35:42;;;;;;;9.85;4.20;;;;;;;18.84;88.19;101953.00;4913003;29;20060;-59
2023/07/10 00:38:30;;;;;;;10.52;4.43;;;;;;;18.85;87.96;101948.56;4912365;29;20028;-59
2023/07/10 00:40:58;;;;;;;7.00;4.10;;;;;;;18.83;88.31;101950.31;4913389;29;20252;-59
2023/07/10 00:43:31;;;;;;;7.43;3.63;;;;;;;18.79;88.12;101944.13;4902474;29;20172;-59
2023/07/10 00:46:09;;;;;;;6.78;3.70;;;;;;;18.70;87.82;101946.72;4904105;29;20118;-59
2023/07/10 00:48:40;;;;;;;8.57;3.72;;;;;;;18.64;88.83;101954.56;4914426;29;20652;-59
2023/07/10 00:51:17;;;;;;;9.90;4.28;;;;;;;18.53;89.00;101955.38;4897804;29;20024;-59
2023/07/10 00:53:45;;;;;;;8.98;4.10;;;;;;;18.47;88.87;101952.69;4878076;29;20115;-59
2023/07/10 00:56:17;;;;;;;9.48;4.13;;;;;;;18.43;89.01;101956.16;4911517;29;20020;-59
2023/07/10 00:58:45;;;;;;;8.25;3.75;;;;;;;18.41;90.12;101947.38;4914128;29;20028;-59
2023/07/10 01:01:18;;;;;;;7.20;4.20;;;;;;;18.45;90.04;101953.53;4912967;29;20040;-59
2023/07/10 01:03:46;;;;;;;7.75;3.80;;;;;;;18.51;90.47;101954.47;4914040;29;20020;-59
2023/07/10 01:06:17;;;;;;;9.60;3.63;;;;;;;18.59;89.82;101952.78;4913968;29;20059;-59
2023/07/10 01:08:48;;;;;;;8.98;3.55;;;;;;;18.62;90.02;101946.63;4913690;29;20406;-59
2023/07/10 01:11:15;;;;;;;7.35;4.07;;;;;;;18.69;89.57;101952.88;4913124;29;20073;-59
2023/07/10 01:13:44;;;;;;;7.15;3.75;;;;;;;18.70;90.20;101955.50;4913395;29;20447;-59
2023/07/10 01:16:11;;;;;;;8.98;4.55;;;;;;;18.62;89.86;101957.19;4910213;29;20134;-59
2023/07/10 01:18:38;;;;;;;8.48;4.20;;;;;;;18.53;89.91;101947.44;4909563;29;20669;-59
2023/07/10 01:21:24;;;;;;;8.90;4.47;;;;;;;18.43;90.11;101950.88;4910357;29;20048;-59
2023/07/10 01:23:50;;;;;;;7.72;4.47;;;;;;;18.34;90.15;101964.00;4895396;29;20028;-59
2023/07/10 01:26:15;;;;;;;15.82;4.20;;;;;;;18.32;90.34;101950.81;4913350;29;20032;-59
2023/07/10 01:28:41;;;;;;;8.63;3.80;;;;;;;18.32;89.24;101955.19;4907751;29;20040;-59
2023/07/10 01:31:09;;;;;;;9.98;3.95;;;;;;;18.33;89.00;101959.59;4902149;29;20032;-59
2023/07/10 01:33:39;;;;;;;9.25;4.28;;;;;;;18.36;89.51;101949.06;4910248;29;20032;-59
2023/07/10 01:36:06;;;;;;;8.77;3.80;;;;;;;18.34;89.86;101934.97;4910078;29;20060;-59
2023/07/10 01:39:11;;;;;;;7.45;3.58;;;;;;;18.41;89.15;101936.81;4912165;29;20035;-59
2023/07/10 01:41:42;;;;;;;8.73;3.70;;;;;;;18.42;89.08;101925.34;4887121;29;20494;-59
2023/07/10 01:44:23;;;;;;;7.90;3.63;;;;;;;18.49;88.65;101928.94;4911469;29;20083;-59
2023/07/10 01:46:49;;;;;;;8.75;3.70;;;;;;;18.53;88.99;101944.81;4911644;29;20438;-59
2023/07/10 01:49:17;;;;;;;7.15;3.67;;;;;;;18.53;90.25;101947.44;4911191;29;20475;-59
2023/07/10 01:51:43;;;;;;;8.10;3.70;;;;;;;18.50;90.02;101950.06;4913484;29;20043;-59
2023/07/10 01:54:13;;;;;;;7.53;3.72;;;;;;;18.52;89.54;101956.22;4915347;29;20032;-59
2023/07/10 01:56:38;;;;;;;10.73;3.88;;;;;;;18.50;89.61;101954.47;4912886;29;20154;-59
2023/07/10 01:59:03;;;;;;;6.85;3.40;;;;;;;18.37;89.82;101950.84;4904260;29;20459;-59
2023/07/10 02:01:29;;;;;;;7.50;3.60;;;;;;;18.25;90.28;101949.84;4913362;29;20044;-59
2023/07/10 02:03:54;;;;;;;10.02;4.88;;;;;;;18.10;90.84;101954.97;4914046;29;20031;-59
2023/07/10 02:06:21;;;;;;;8.02;4.20;;;;;;;18.04;91.86;101949.63;4916068;29;20032;-59
2023/07/10 02:08:47;;;;;;;7.80;4.60;;;;;;;18.10;91.90;101952.31;4914054;29;20048;-59
2023/07/10 02:11:12;;;;;;;8.93;4.30;;;;;;;18.15;91.57;101949.75;4903844;29;20035;-59
2023/07/10 02:13:38;;;;;;;10.65;4.85;;;;;;;18.18;91.28;101945.38;4886811;29;20044;-59
2023/07/10 02:16:04;;;;;;;9.15;4.38;;;;;;;18.18;90.83;101944.50;4915022;29;20028;-59
2023/07/10 02:18:30;;;;;;;8.40;4.20;;;;;;;18.13;91.02;101946.19;4914890;29;20031;-59
2023/07/10 02:20:55;;;;;;;7.65;4.00;;;;;;;18.10;90.67;101946.19;4913310;29;20040;-59
2023/07/10 02:23:21;;;;;;;8.13;4.45;;;;;;;18.07;90.70;101954.94;4908441;29;20024;-59
2023/07/10 02:25:46;;;;;;;9.15;4.10;;;;;;;18.07;90.34;101961.13;4913501;29;20591;-59
2023/07/10 02:28:12;;;;;;;8.32;3.90;;;;;;;18.10;90.15;101968.16;4915393;29;20036;-59
2023/07/10 02:34:57;;;;;;;8.23;4.95;;;;;;;18.06;88.75;101979.53;4897432;29;20515;-59
2023/07/10 02:37:28;;;;;;;7.78;4.10;;;;;;;17.97;89.34;101976.81;4911655;29;20051;-59
2023/07/10 02:40:11;;;;;;;8.73;4.55;;;;;;;17.99;89.24;101980.38;4913946;29;20040;-59
2023/07/10 02:42:37;;;;;;;8.85;4.38;;;;;;;18.02;90.01;101975.13;4908280;29;20530;-59
2023/07/10 02:45:02;;;;;;;9.25;4.35;;;;;;;17.99;89.46;101975.97;4909742;29;20025;-59
2023/07/10 02:47:28;;;;;;;10.15;4.30;;;;;;;18.01;89.46;101978.63;4897120;29;20040;-59
2023/07/10 02:49:53;;;;;;;9.15;4.75;;;;;;;18.02;89.09;101975.13;4915471;29;20536;-59
2023/07/10 02:52:18;;;;;;;9.57;5.10;;;;;;;18.01;88.74;101970.69;4914096;29;20060;-59
2023/07/10 02:54:43;;;;;;;8.70;4.68;;;;;;;18.04;88.71;101974.25;4913543;29;20032;-58
2023/07/10 02:57:09;;;;;;;9.63;4.95;;;;;;;18.06;88.80;101974.25;4904505;29;20040;-59
2023/07/10 02:59:34;;;;;;;9.77;4.82;;;;;;;18.04;88.90;101976.00;4913699;29;20028;-59
2023/07/10 03:02:02;;;;;;;9.95;5.18;;;;;;;18.03;89.61;101979.50;4910229;29;20032;-59
2023/07/10 03:04:27;;;;;;;10.45;5.18;;;;;;;18.02;89.49;101983.03;4909892;29;20028;-59
2023/07/10 03:06:53;;;;;;;9.00;4.88;;;;;;;18.01;89.41;101986.53;4899021;29;20100;-59
2023/07/10 03:09:18;;;;;;;9.20;5.43;;;;;;;17.98;89.06;101984.72;4909254;29;20107;-59
2023/07/10 03:11:43;;;;;;;9.00;4.53;;;;;;;17.87;90.47;101987.22;4913981;29;20036;-59
2023/07/10 03:14:09;;;;;;;10.68;5.10;;;;;;;17.80;90.86;101987.13;4914316;29;20028;-59
2023/07/10 03:16:34;;;;;;;9.38;6.05;;;;;;;17.74;91.04;101990.56;4914139;29;20024;-59
2023/07/10 03:18:59;;;;;;;8.57;5.55;;;;;;;17.76;91.29;101987.97;4913078;29;20084;-59
2023/07/10 03:21:25;;;;;;;14.32;6.70;;;;;;;17.76;91.61;101994.13;4913925;29;20024;-59
2023/07/10 03:23:51;;;;;;;11.38;6.43;;;;;;;17.79;91.53;101999.44;4914683;29;20470;-59
2023/07/10 03:26:17;;;;;;;12.65;7.80;;;;;;;17.77;92.22;102003.81;4912672;29;20046;-59
2023/07/10 03:28:42;;;;;;;12.57;8.30;;;;;;;17.78;92.48;102016.09;4913815;29;20032;-59
2023/07/10 03:31:07;;;;;;;14.15;8.80;;;;;;;17.74;93.46;102006.38;4912495;29;20067;-59
2023/07/10 03:33:33;;;;;;;15.05;9.85;;;;;;;17.66;94.10;102006.28;4913006;29;20024;-59
2023/07/10 03:36:05;;;;;;;15.48;9.98;;;;;;;17.63;94.30;102003.63;4913824;29;20038;-59
2023/07/10 03:38:31;;;;;;;19.27;11.05;;;;;;;17.60;94.92;102005.31;4914192;29;20032;-59
2023/07/10 03:40:57;;;;;;;15.88;10.30;;;;;;;17.60;94.42;102008.84;4914043;29;20036;-59
2023/07/10 03:43:24;;;;;;;17.85;10.82;;;;;;;17.63;94.27;102002.75;4912334;29;20028;-59
2023/07/10 03:45:50;;;;;;;15.45;10.60;;;;;;;17.67;94.31;102009.81;4911992;29;20067;-59
2023/07/10 03:48:15;;;;;;;16.00;10.95;;;;;;;17.70;93.92;102009.88;4908040;29;20037;-59
2023/07/10 03:50:41;;;;;;;19.13;11.05;;;;;;;17.69;93.81;102008.09;4905690;29;20324;-59
2023/07/10 03:53:07;;;;;;;15.98;10.82;;;;;;;17.64;93.99;102009.75;4913350;29;20036;-58
2023/07/10 03:55:32;;;;;;;17.30;11.68;;;;;;;17.61;93.65;102010.63;4914066;29;20028;-59
2023/07/10 03:57:58;;;;;;;18.58;11.35;;;;;;;17.58;93.97;102013.19;4914961;29;20032;-59
2023/07/10 04:00:23;;;;;;;15.55;10.23;;;;;;;17.55;93.80;102016.72;4914832;29;20499;-59
2023/07/10 04:02:48;;;;;;;18.90;10.82;;;;;;;17.51;93.94;102011.34;4914495;29;20024;-59
2023/07/10 04:05:14;;;;;;;17.83;10.88;;;;;;;17.51;94.15;102021.88;4914823;29;20028;-59
2023/07/10 04:07:39;;;;;;;16.88;10.82;;;;;;;17.49;93.79;102032.41;4913407;29;20028;-59
2023/07/10 04:10:05;;;;;;;15.90;10.18;;;;;;;17.45;92.49;102034.97;4914457;29;20079;-59
2023/07/10 04:12:30;;;;;;;15.77;10.05;;;;;;;17.46;93.99;102032.38;4915333;29;20653;-59
2023/07/10 04:14:55;;;;;;;16.25;10.00;;;;;;;17.45;93.86;102030.63;4914593;29;20236;-59
2023/07/10 04:17:21;;;;;;;17.70;10.30;;;;;;;17.41;93.94;102044.63;4912814;29;20495;-59
2023/07/10 04:19:46;;;;;;;16.35;10.85;;;;;;;17.39;94.06;102048.97;4914499;29;20047;-59
2023/07/10 04:22:12;;;;;;;17.92;10.73;;;;;;;17.35;94.16;102039.22;4911168;29;20483;-59
2023/07/10 04:24:37;;;;;;;16.77;10.10;;;;;;;17.29;94.48;102033.88;4911376;29;20020;-59
2023/07/10 04:27:02;;;;;;;20.63;10.85;;;;;;;17.32;94.41;102034.81;4912540;29;20043;-59
2023/07/10 04:29:28;;;;;;;16.67;9.85;;;;;;;17.30;94.50;102033.91;4913639;29;20042;-59
2023/07/10 04:31:53;;;;;;;15.48;9.63;;;;;;;17.30;94.14;102038.28;4907552;29;20493;-59
2023/07/10 04:34:18;;;;;;;14.27;9.93;;;;;;;17.29;94.44;102033.88;4912992;29;20039;-59
2023/07/10 04:36:44;;;;;;;15.02;9.55;;;;;;;17.30;94.57;102035.66;4912262;29;20090;-59
2023/07/10 04:39:09;;;;;;;14.05;9.45;;;;;;;17.32;95.04;102041.81;4912475;29;20031;-59
2023/07/10 04:41:36;;;;;;;18.75;10.40;;;;;;;17.32;94.95;102044.47;4913598;29;20483;-59
2023/07/10 04:44:02;;;;;;;18.00;10.68;;;;;;;17.33;95.25;102035.69;4910666;29;20107;-58
2023/07/10 04:46:27;;;;;;;16.92;11.13;;;;;;;17.35;94.86;102039.22;4912726;29;20158;-59
2023/07/10 04:48:52;;;;;;;17.05;11.48;;;;;;;17.37;95.40;102041.03;4910049;29;20036;-59
2023/07/10 04:51:19;;;;;;;18.00;11.68;;;;;;;17.39;95.62;102038.41;4909610;29;20040;-59
2023/07/10 04:53:45;;;;;;;19.40;12.30;;;;;;;17.39;95.96;102043.69;4906667;29;20032;-59
2023/07/10 04:56:12;;;;;;;18.48;12.63;;;;;;;17.37;96.12;102046.31;4908601;29;20063;-59
2023/07/10 04:58:50;;;;;;;20.75;13.18;;;;;;;17.37;96.58;102053.31;4914070;29;20024;-59
2023/07/10 05:01:17;;;;;;;20.63;14.05;;;;;;;17.38;96.72;102049.84;4914012;29;20036;-59
2023/07/10 05:03:42;;;;;;;19.17;13.52;;;;;;;17.39;97.00;102054.22;4912451;29;20020;-59
2023/07/10 05:06:07;;;;;;;19.52;13.95;;;;;;;17.40;96.60;102053.38;4914074;29;20087;-59
2023/07/10 05:08:33;;;;;;;20.65;12.63;;;;;;;17.39;96.13;102059.50;4913666;29;20063;-59
2023/07/10 05:10:58;;;;;;;19.80;13.98;;;;;;;17.41;96.82;102060.41;4913441;29;20582;-59
2023/07/10 05:13:26;;;;;;;21.55;13.70;;;;;;;17.43;96.65;102065.72;4912825;29;20032;-59
2023/07/10 05:15:53;;;;;;;21.08;13.95;;;;;;;17.43;96.79;102063.06;4913903;29;20491;-58
2023/07/10 05:18:18;;;;;;;22.33;13.40;;;;;;;17.43;97.44;102068.34;4912053;29;20546;-59
2023/07/10 05:20:45;;;;;;;20.73;13.38;;;;;;;17.44;97.55;102064.81;4912203;29;20115;-59
2023/07/10 05:23:12;;;;;;;21.48;14.43;;;;;;;17.45;97.47;102067.50;4889516;29;20550;-59
2023/07/10 05:25:37;;;;;;;20.40;13.50;;;;;;;17.47;97.46;102078.06;4915731;29;20087;-59
2023/07/10 05:28:03;;;;;;;21.15;13.07;;;;;;;17.49;96.50;102074.56;4915714;29;20036;-59
2023/07/10 05:30:29;;;;;;;21.95;13.10;;;;;;;17.51;96.70;102075.50;4910374;29;20028;-59
2023/07/10 05:32:54;;;;;;;20.42;13.43;;;;;;;17.52;97.79;102079.00;4916538;29;20031;-59
2023/07/10 05:35:20;;;;;;;21.88;13.57;;;;;;;17.52;97.54;102076.38;4898789;29;20028;-59
2023/07/10 05:37:45;;;;;;;23.08;14.52;;;;;;;17.53;97.36;102076.41;4916460;29;20072;-59
2023/07/10 05:40:11;;;;;;;20.88;13.68;;;;;;;17.58;97.33;102067.66;4908129;29;20032;-59
2023/07/10 05:42:38;;;;;;;20.45;14.05;;;;;;;17.63;97.18;102079.19;4908817;29;20061;-59
2023/07/10 05:45:04;;;;;;;23.42;13.30;;;;;;;17.70;96.65;102073.13;4914731;29;20032;-59
2023/07/10 05:47:29;;;;;;;21.27;12.63;;;;;;;17.69;97.06;102066.09;4916130;29;20058;-59
2023/07/10 05:49:54;;;;;;;22.02;12.63;;;;;;;17.71;96.92;102059.06;4914120;29;20043;-59
2023/07/10 05:52:20;;;;;;;23.02;13.40;;;;;;;17.76;96.38;102067.06;4897537;29;20275;-59
2023/07/10 05:54:45;;;;;;;21.35;12.15;;;;;;;17.82;95.86;102062.72;4906112;29;20032;-59
2023/07/10 05:57:10;;;;;;;18.08;10.73;;;;;;;17.86;95.39;102066.31;4913318;29;20047;-59
2023/07/10 05:59:36;;;;;;;19.88;10.45;;;;;;;17.83;95.82;102071.53;4913499;29;20040;-59
2023/07/10 06:02:01;;;;;;;18.60;9.82;;;;;;;17.83;94.57;102063.59;4911277;29;20053;-59
2023/07/10 06:04:26;;;;;;;15.95;10.27;;;;;;;17.86;95.27;102067.19;4915176;29;20028;-59
2023/07/10 06:06:52;;;;;;;18.70;11.07;;;;;;;17.90;96.31;102068.13;4911927;29;20032;-59
2023/07/10 06:09:17;;;;;;;20.25;10.10;;;;;;;17.93;95.50;102070.84;4912426;29;20077;-59
2023/07/10 06:11:42;;;;;;;14.77;9.10;;;;;;;17.99;94.43;102070.03;4909393;29;20024;-59
2023/07/10 06:14:08;;;;;;;15.20;9.25;;;;;;;17.99;94.94;102064.75;4912745;29;20109;-59
2023/07/10 06:16:33;;;;;;;19.88;10.07;;;;;;;18.02;94.98;102075.34;4893145;29;20403;-59
2023/07/10 06:18:58;;;;;;;17.60;10.07;;;;;;;18.14;93.31;102075.47;4914626;29;20027;-59
2023/07/10 06:21:24;;;;;;;18.40;10.02;;;;;;;18.10;94.47;102065.75;4887971;29;20039;-60
2023/07/10 06:23:49;;;;;;;15.07;8.43;;;;;;;18.19;93.91;102078.16;4914659;29;20043;-60
2023/07/10 06:26:14;;;;;;;15.40;8.50;;;;;;;18.29;91.36;102079.16;4913890;29;20034;-60
2023/07/10 06:28:40;;;;;;;15.73;9.00;;;;;;;18.28;90.98;102078.28;4909545;29;20115;-60
2023/07/10 06:31:10;;;;;;;18.30;9.90;;;;;;;18.34;90.47;102085.38;4912917;29;20115;-60
2023/07/10 06:33:37;;;;;;;14.95;8.50;;;;;;;18.46;89.17;102093.44;4913560;29;20187;-60
2023/07/10 06:36:04;;;;;;;16.10;8.52;;;;;;;18.45;89.60;102096.97;4907678;29;20102;-60
2023/07/10 06:38:30;;;;;;;15.10;9.40;;;;;;;18.48;89.62;102090.81;4910889;29;20036;-60
2023/07/10 06:40:56;;;;;;;15.82;9.35;;;;;;;18.53;90.28;102100.53;4894514;29;20036;-60
2023/07/10 06:43:22;;;;;;;13.55;8.98;;;;;;;18.63;90.78;102098.03;4914825;29;20067;-60
2023/07/10 06:45:48;;;;;;;15.60;8.60;;;;;;;18.68;88.56;102101.56;4913897;29;20102;-60
2023/07/10 06:48:13;;;;;;;15.02;8.63;;;;;;;18.70;88.75;102091.94;4906049;29;20029;-60
2023/07/10 06:50:39;;;;;;;14.90;7.88;;;;;;;18.76;87.88;102086.69;4913607;29;20039;-60
2023/07/10 06:53:04;;;;;;;12.73;7.50;;;;;;;18.83;86.36;102099.09;4903126;29;20439;-60
2023/07/10 06:55:30;;;;;;;14.30;7.82;;;;;;;18.91;85.38;102093.91;4898953;29;20498;-60
2023/07/10 06:57:55;;;;;;;15.93;7.43;;;;;;;18.96;85.37;102099.22;4915055;29;20040;-60
2023/07/10 07:00:21;;;;;;;14.20;7.70;;;;;;;19.04;85.46;102108.13;4910018;29;20115;-61
2023/07/10 07:02:46;;;;;;;15.35;7.53;;;;;;;19.05;85.43;102105.47;4906240;29;20360;-60
2023/07/10 07:05:12;;;;;;;12.63;7.55;;;;;;;19.17;84.78;102094.13;4910561;29;20028;-60
2023/07/10 07:07:38;;;;;;;13.82;6.70;;;;;;;19.20;82.46;102094.16;4902419;29;20271;-60
2023/07/10 07:10:06;;;;;;;13.32;6.10;;;;;;;19.24;82.99;102089.78;4911005;29;20048;-60
2023/07/10 07:12:32;;;;;;;11.50;6.32;;;;;;;19.31;82.68;102093.38;4908636;29;20107;-60
2023/07/10 07:14:57;;;;;;;14.18;7.13;;;;;;;19.36;82.67;102086.34;4891410;29;20127;-60
2023/07/10 07:17:22;;;;;;;13.77;6.88;;;;;;;19.45;80.98;102099.59;4909936;29;20438;-60
2023/07/10 07:19:48;;;;;;;12.18;6.53;;;;;;;19.53;81.53;102091.75;4912764;29;20123;-60
2023/07/10 07:22:14;;;;;;;11.20;6.22;;;;;;;19.61;82.44;102095.31;4915482;29;20063;-60
2023/07/10 07:24:39;;;;;;;13.90;6.28;;;;;;;19.68;79.99;102097.09;4911596;29;20536;-60
2023/07/10 07:27:05;;;;;;;11.77;6.10;;;;;;;19.68;80.10;102101.53;4913145;29;20036;-60
2023/07/10 07:29:30;;;;;;;11.70;6.00;;;;;;;19.75;79.64;102098.91;4913107;29;20024;-60
2023/07/10 07:31:55;;;;;;;15.45;6.40;;;;;;;19.88;78.29;102109.59;4910676;29;20063;-60
2023/07/10 07:34:21;;;;;;;13.75;5.82;;;;;;;19.87;77.18;102114.03;4907825;29;20058;-60
2023/07/10 07:36:49;;;;;;;13.88;6.30;;;;;;;19.90;78.64;102116.69;4907290;29;20025;-61
2023/07/10 07:39:15;;;;;;;13.75;6.65;;;;;;;19.94;80.45;102118.47;4907358;29;20024;-60
2023/07/10 07:41:41;;;;;;;12.48;6.63;;;;;;;20.10;79.43;102123.81;4909658;29;20126;-60
2023/07/10 07:44:07;;;;;;;12.82;6.60;;;;;;;20.19;78.70;102121.22;4905092;29;20104;-60
2023/07/10 07:46:32;;;;;;;12.32;6.50;;;;;;;20.26;79.61;102116.81;4901010;29;20292;-60
2023/07/10 07:48:58;;;;;;;14.48;6.45;;;;;;;20.35;80.59;102118.63;4906692;29;20036;-60
2023/07/10 07:51:23;;;;;;;11.13;6.00;;;;;;;20.48;78.41;102120.44;4907957;29;20028;-60
2023/07/10 07:54:04;;;;;;;11.50;5.88;;;;;;;20.52;75.38;102119.56;4914081;29;20039;-60
2023/07/10 07:56:29;;;;;;;11.43;5.10;;;;;;;20.55;74.69;102119.59;4901587;29;20120;-61
2023/07/10 07:58:55;;;;;;;10.60;5.05;;;;;;;20.59;74.08;102115.16;4912802;29;20122;-61
2023/07/10 08:01:20;;;;;;;11.65;5.65;;;;;;;20.62;73.82;102107.22;4906969;29;20486;-60
2023/07/10 08:03:45;;;;;;;10.70;5.07;;;;;;;20.71;73.31;102104.66;4905675;29;20099;-61
2023/07/10 08:06:12;;;;;;;11.93;5.68;;;;;;;20.79;74.70;102102.00;4903988;29;20495;-61
2023/07/10 08:08:37;;;;;;;11.35;5.75;;;;;;;20.93;74.85;102102.91;4905542;29;20055;-60
2023/07/10 08:11:06;;;;;;;11.02;4.38;;;;;;;21.02;73.38;102105.53;4913695;29;20478;-61
2023/07/10 08:13:31;;;;;;;12.88;4.75;;;;;;;21.12;72.65;102097.59;4893660;29;20122;-61
2023/07/10 08:15:57;;;;;;;11.38;4.40;;;;;;;21.21;73.99;102092.28;4904450;29;20036;-61
2023/07/10 08:18:27;;;;;;;12.63;4.70;;;;;;;21.32;73.69;102098.47;4900672;29;20056;-61
2023/07/10 08:21:03;;;;;;;9.55;4.35;;;;;;;21.44;73.93;102102.00;4892721;29;20059;-61
2023/07/10 08:23:28;;;;;;;10.88;4.35;;;;;;;21.51;67.68;102101.13;4906714;29;20396;-61
2023/07/10 08:25:55;;;;;;;11.98;4.60;;;;;;;21.59;68.00;102096.69;4893299;29;20043;-61
2023/07/10 08:28:20;;;;;;;9.10;4.80;;;;;;;21.57;69.47;102098.47;4909605;29;20135;-61
2023/07/10 08:30:46;;;;;;;10.52;4.15;;;;;;;21.63;69.51;102100.22;4905933;29;20028;-61
2023/07/10 08:33:11;;;;;;;8.73;3.30;;;;;;;21.72;68.55;102102.84;4911037;29;20511;-61
2023/07/10 08:35:37;;;;;;;10.27;4.05;;;;;;;21.82;68.46;102104.56;4906489;29;20118;-61
2023/07/10 08:38:06;;;;;;;8.43;3.72;;;;;;;21.93;70.92;102098.34;4903499;29;20067;-60
2023/07/10 08:40:36;;;;;;;;;;;;;;;22.07;69.80;102101.81;4876323;29;20079;-61
2023/07/10 08:43:15;;;;;;;9.77;3.50;;;;;;;22.13;68.46;102092.94;4907325;29;20030;-61
2023/07/10 08:45:41;;;;;;;7.50;3.38;;;;;;;22.18;66.24;102097.34;4888059;29;20059;-61
2023/07/10 08:48:33;;;;;;;11.38;3.60;;;;;;;22.34;68.55;102087.56;4901330;29;20891;-61
2023/07/10 08:51:07;;;;;;;8.85;3.25;;;;;;;22.50;64.49;102098.97;4879407;29;20040;-61
2023/07/10 08:53:36;;;;;;;8.27;3.00;;;;;;;22.50;65.14;102101.66;4902171;29;20067;-60
2023/07/10 08:56:21;;;;;;;7.22;2.50;;;;;;;22.60;64.87;102096.28;4904715;29;20415;-61
2023/07/10 08:58:48;;;;;;;7.60;2.63;;;;;;;22.63;64.19;102097.13;4904577;29;20024;-60
2023/07/10 09:01:43;;;;;;;6.47;2.50;;;;;;;22.77;62.92;102099.72;4904520;29;20037;-61
2023/07/10 09:04:15;;;;;;;5.90;2.70;;;;;;;22.83;63.20;102102.31;4905607;29;20406;-61
2023/07/10 09:06:47;;;;;;;8.88;2.70;;;;;;;22.86;61.15;102102.28;4906561;29;20031;-61
2023/07/10 09:10:02;;;;;;;9.13;2.80;;;;;;;22.97;62.23;102104.88;4902800;29;20063;-61
2023/07/10 09:12:36;;;;;;;8.30;2.92;;;;;;;23.04;61.18;102113.66;4891970;29;20044;-61
2023/07/10 09:15:07;;;;;;;8.95;3.25;;;;;;;23.07;62.38;102110.97;4912789;29;20043;-61
2023/07/10 09:17:52;;;;;;;6.90;2.80;;;;;;;23.25;61.24;102116.19;4910796;29;20495;-62
2023/07/10 09:20:24;;;;;;;8.23;2.78;;;;;;;23.36;58.35;102107.22;4905679;29;20054;-61
2023/07/10 09:23:02;;;;;;;8.05;2.60;;;;;;;23.53;60.57;102094.63;4896863;29;20478;-61
2023/07/10 09:25:28;;;;;;;8.70;3.10;;;;;;;23.68;58.19;102104.25;4898685;29;20059;-61
2023/07/10 09:27:56;;;;;;;6.88;2.53;;;;;;;23.76;57.57;102091.72;4896762;29;20032;-62
2023/07/10 09:30:56;;;;;;;7.82;2.67;;;;;;;23.85;59.29;102111.13;4907294;29;20657;-61
2023/07/10 09:33:22;;;;;;;6.05;2.45;;;;;;;23.94;56.40;102103.97;4904810;29;20031;-61
2023/07/10 09:35:50;;;;;;;5.25;2.42;;;;;;;23.89;56.22;102100.47;4895740;29;20103;-61
2023/07/10 09:38:18;;;;;;;5.65;2.45;;;;;;;23.92;57.85;102102.22;4896835;29;20525;-61
2023/07/10 09:40:50;;;;;;;7.07;2.75;;;;;;;23.93;58.41;102101.31;4905052;29;20036;-62
2023/07/10 09:43:23;;;;;;;7.47;2.65;;;;;;;24.12;58.26;102100.19;4890895;29;20102;-61
2023/07/10 09:45:51;;;;;;;6.53;2.65;;;;;;;24.17;55.94;102102.78;4911133;29;20032;-60
2023/07/10 09:48:34;;;;;;;10.25;2.65;;;;;;;23.96;57.52;102099.50;4902680;29;20111;-62
2023/07/10 09:51:07;;;;;;;7.38;2.60;;;;;;;24.11;57.86;102097.53;4889918;29;20537;-63
2023/07/10 09:53:45;;;;;;;7.72;2.72;;;;;;;24.26;55.12;102100.00;4907321;29;20431;-62
2023/07/10 09:56:26;;;;;;;9.05;3.10;;;;;;;24.31;55.43;102107.94;4903097;29;20067;-62
2023/07/10 09:58:54;;;;;;;7.57;2.83;;;;;;;24.46;57.10;102109.50;4895109;29;20024;-62
2023/07/10 10:01:24;;;;;;;7.70;2.80;;;;;;;24.66;54.57;102111.91;4884771;29;20518;-62
2023/07/10 10:03:52;;;;;;;12.07;2.92;;;;;;;24.58;53.45;102108.47;4890391;29;21622;-62
2023/07/10 10:06:26;;;;;;;6.18;2.55;;;;;;;24.25;53.86;102108.88;4904099;29;20032;-63
2023/07/10 10:08:53;;;;;;;8.73;3.15;;;;;;;24.18;53.76;102098.34;4908901;29;20036;-62
2023/07/10 10:11:51;;;;;;;6.15;2.63;;;;;;;24.31;54.54;102102.59;4915892;29;20051;-62
2023/07/10 10:14:30;;;;;;;8.57;3.30;;;;;;;24.30;52.95;102098.16;4877734;29;20062;-62
2023/07/10 10:16:59;;;;;;;7.57;2.85;;;;;;;24.38;54.71;102093.63;4887325;29;20100;-62
2023/07/10 10:19:36;;;;;;;7.30;2.80;;;;;;;24.74;55.77;102088.69;4898953;29;20059;-62
2023/07/10 10:22:10;;;;;;;7.40;2.60;;;;;;;24.97;56.49;102095.44;4910848;29;20447;-63
2023/07/10 10:24:36;;;;;;;6.88;3.00;;;;;;;25.02;52.40;102098.88;4909517;29;20040;-63
2023/07/10 10:27:40;;;;;;;6.95;2.65;;;;;;;25.00;54.49;102095.38;4892559;29;20047;-63
2023/07/10 10:30:18;;;;;;;7.63;3.10;;;;;;;25.30;52.22;102085.06;4914094;29;20142;-63
2023/07/10 10:33:10;;;;;;;7.13;2.55;;;;;;;25.44;50.09;102080.38;4914900;29;20510;-64
2023/07/10 10:36:01;;;;;;;6.38;2.40;;;;;;;25.43;51.92;102089.31;4915806;29;20107;-65
2023/07/10 10:38:43;;;;;;;6.88;2.55;;;;;;;25.51;51.42;102084.69;4883299;29;20054;-63
2023/07/10 10:41:31;;;;;;;6.45;2.55;;;;;;;25.49;47.99;102085.63;4916417;29;20411;-63
2023/07/10 10:44:18;;;;;;;5.28;2.33;;;;;;;25.31;51.08;102086.88;4903352;29;20530;-64
2023/07/10 10:47:17;;;;;;;6.88;2.40;;;;;;;25.11;52.08;102096.06;4902563;29;20040;-64
2023/07/10 10:50:03;;;;;;;8.55;3.03;;;;;;;25.11;52.59;102093.38;4907814;29;20027;-66
2023/07/10 10:52:44;;;;;;;5.55;2.70;;;;;;;25.33;51.87;102087.69;4901873;29;20076;-65
2023/07/10 10:55:27;;;;;;;7.60;2.85;;;;;;;25.51;51.63;102095.38;4904742;29;20029;-65
2023/07/10 10:58:13;;;;;;;5.90;2.25;;;;;;;25.48;49.16;102097.22;4909533;29;20075;-65
2023/07/10 11:00:58;;;;;;;6.05;2.10;;;;;;;25.65;50.34;102097.78;4914439;29;20044;-65
2023/07/10 11:03:56;;;;;;;5.10;2.25;;;;;;;25.91;48.33;102098.16;4909058;29;20028;-65
2023/07/10 11:06:58;;;;;;;7.03;2.38;;;;;;;25.91;49.83;102100.81;4896628;29;20051;-64
2023/07/10 11:09:32;;;;;;;6.40;2.40;;;;;;;26.01;48.01;102097.09;4915597;29;20418;-63
2023/07/10 11:12:00;;;;;;;6.82;2.30;;;;;;;26.17;48.77;102097.63;4913860;29;20048;-65
2023/07/10 11:14:27;;;;;;;8.73;2.67;;;;;;;26.42;47.83;102089.06;4904087;29;20035;-63
2023/07/10 11:16:53;;;;;;;5.80;2.22;;;;;;;26.60;44.74;102095.78;4914791;29;20055;-66
2023/07/10 11:19:28;;;;;;;6.50;2.30;;;;;;;26.69;47.35;102100.94;4913146;29;20028;-65
2023/07/10 11:21:54;;;;;;;7.95;2.38;;;;;;;26.98;48.58;102089.53;4899429;29;20032;-66
2023/07/10 11:24:25;;;;;;;7.63;2.88;;;;;;;26.92;45.52;102095.03;4912242;29;20031;-65
2023/07/10 11:26:52;;;;;;;6.15;2.60;;;;;;;26.58;45.15;102094.94;4915544;29;20028;-65
2023/07/10 11:29:28;;;;;;;6.07;2.58;;;;;;;26.50;48.41;102085.28;4904654;29;20483;-63
2023/07/10 11:31:58;;;;;;;8.82;2.42;;;;;;;26.59;47.19;102089.53;4914411;29;20039;-63
2023/07/10 11:34:30;;;;;;;6.35;2.35;;;;;;;26.67;46.68;102090.25;4895894;29;20123;-65